Time;durP1;ratioP1;P1;durP2;ratioP2;P2;SDS_P1;SDS_P2;PMS_P1;PMS_P2;Temp;Humidity;BMP_temperature;BMP_pressure;BME280_temperature;BME280_humidity;BME280_pressure;Samples;Min_cycle;Max_cycle;Signal;HPM_P1;HPM_P2
2022/06/07 00:00:25;;;;;;;15.77;14.00;;;17.90;99.90;17.30;100109;;;;551538;257;24217;-80
2022/06/07 00:02:53;;;;;;;15.67;13.97;;;17.80;99.90;17.20;100106;;;;542182;261;24212;-81
2022/06/07 00:05:21;;;;;;;14.60;13.20;;;17.80;99.90;17.20;100104;;;;551589;257;24194;-82
2022/06/07 00:07:49;;;;;;;13.67;12.30;;;17.80;99.90;17.20;100103;;;;541980;261;24189;-79
2022/06/07 00:10:17;;;;;;;14.43;13.03;;;17.80;99.90;17.20;100099;;;;551678;257;24139;-76
2022/06/07 00:12:45;;;;;;;15.40;13.33;;;17.80;99.90;17.20;100105;;;;550191;261;24194;-74
2022/06/07 00:15:13;;;;;;;15.90;13.50;;;17.80;99.90;17.20;100098;;;;544182;259;24213;-74
2022/06/07 00:17:40;;;;;;;16.03;14.37;;;17.70;99.90;17.20;100097;;;;542387;261;24184;-74
2022/06/07 00:20:08;;;;;;;13.37;11.97;;;17.70;99.90;17.20;100094;;;;560523;252;24134;-76
2022/06/07 00:22:37;;;;;;;14.80;13.27;;;17.80;99.90;17.20;100091;;;;542568;261;24181;-80
2022/06/07 00:25:06;;;;;;;14.33;12.97;;;17.70;99.90;17.20;100092;;;;551693;257;24200;-82
2022/06/07 00:27:37;;;;;;;12.33;11.13;;;17.70;99.90;17.20;100081;;;;542219;261;24227;-81
2022/06/07 00:30:04;;;;;;;16.37;12.07;;;17.70;99.90;17.20;100083;;;;541748;261;24167;-78
2022/06/07 00:32:33;;;;;;;13.27;11.97;;;17.70;99.90;17.20;100084;;;;552672;256;24236;-81
2022/06/07 00:34:57;;;;;;;11.03;10.03;;;17.70;99.90;17.20;100081;;;;542630;256;24210;-81
2022/06/07 00:37:25;;;;;;;11.73;10.63;;;17.80;99.90;17.20;100075;;;;560494;256;24156;-83
2022/06/07 00:39:53;;;;;;;11.97;10.77;;;17.70;99.90;17.20;100076;;;;554752;257;24167;-84
2022/06/07 00:42:21;;;;;;;12.50;11.27;;;17.80;99.90;17.20;100075;;;;551933;257;24152;-76
2022/06/07 00:44:49;;;;;;;11.93;10.83;;;17.70;99.90;17.10;100062;;;;542192;260;24173;-77
2022/06/07 00:47:17;;;;;;;12.03;10.93;;;17.70;99.90;17.10;100057;;;;551672;257;24157;-73
2022/06/07 00:49:55;;;;;;;12.83;11.53;;;17.80;99.90;17.10;100056;;;;549504;261;24222;-81
2022/06/07 00:52:23;;;;;;;11.53;10.43;;;17.70;99.90;17.20;100062;;;;551585;256;24142;-74
2022/06/07 00:54:51;;;;;;;12.07;10.87;;;17.70;99.90;17.20;100057;;;;541752;261;24241;-76
2022/06/07 00:57:19;;;;;;;11.73;10.63;;;17.70;99.90;17.10;100056;;;;551822;256;24134;-81
2022/06/07 00:59:47;;;;;;;11.97;10.97;;;17.70;99.90;17.20;100054;;;;542092;261;24223;-78
2022/06/07 01:02:18;;;;;;;11.97;10.83;;;17.70;99.90;17.20;100058;;;;550273;256;24173;-84
2022/06/07 01:04:43;;;;;;;12.43;10.77;;;17.70;99.90;17.20;100059;;;;551334;257;24150;-82
2022/06/07 01:12:43;;;;;;;14.17;11.87;;;17.70;99.90;17.20;100056;;;;542054;261;24173;-78
2022/06/07 01:15:11;;;;;;;13.67;12.03;;;17.70;99.90;17.20;100049;;;;543903;259;24138;-80
2022/06/07 01:17:39;;;;;;;12.97;11.67;;;17.70;99.90;17.10;100050;;;;551468;257;24172;-81
2022/06/07 01:20:07;;;;;;;12.70;11.47;;;17.70;99.90;17.10;100048;;;;541851;261;24155;-81
2022/06/07 01:22:35;;;;;;;13.63;12.37;;;17.70;99.90;17.10;100039;;;;551602;257;24156;-76
2022/06/07 01:25:03;;;;;;;15.87;13.30;;;17.70;99.90;17.10;100040;;;;542231;261;24170;-75
2022/06/07 01:27:31;;;;;;;14.97;12.53;;;17.70;99.90;17.10;100029;;;;542159;261;24189;-81
2022/06/07 01:29:59;;;;;;;14.00;12.60;;;17.70;99.90;17.10;100022;;;;559664;257;24165;-78
2022/06/07 01:32:27;;;;;;;14.97;13.47;;;17.70;99.90;17.10;100021;;;;541764;261;24163;-78
2022/06/07 01:34:55;;;;;;;14.40;13.00;;;17.70;99.90;17.10;100029;;;;551409;257;24196;-77
2022/06/07 01:37:23;;;;;;;13.07;11.77;;;17.60;99.90;17.10;100025;;;;541609;261;24195;-76
2022/06/07 01:42:38;;;;;;;14.03;12.63;;;17.70;99.90;17.10;100011;;;;544451;258;24156;-76
2022/06/07 01:45:07;;;;;;;12.50;11.43;;;17.70;99.90;17.10;100013;;;;552336;256;24156;-78
2022/06/07 01:47:38;;;;;;;11.83;10.77;;;17.60;99.90;17.10;100012;;;;542419;261;24259;-74
2022/06/07 01:50:06;;;;;;;12.67;11.57;;;17.70;99.90;17.10;100011;;;;543532;259;24152;-73
2022/06/07 01:52:31;;;;;;;12.63;11.43;;;17.70;99.90;17.10;100002;;;;542049;261;24289;-73
2022/06/07 01:54:58;;;;;;;12.30;11.10;;;17.70;99.90;17.10;99998;;;;542284;261;24193;-75
2022/06/07 01:57:30;;;;;;;11.73;10.63;;;17.70;99.90;17.10;99999;;;;550849;257;24163;-75
2022/06/07 01:59:55;;;;;;;12.20;11.20;;;17.70;99.90;17.10;100005;;;;543897;261;24248;-73
2022/06/07 02:02:27;;;;;;;12.77;11.53;;;17.70;99.90;17.10;99997;;;;559337;257;24144;-78
2022/06/07 02:04:57;;;;;;;12.20;11.00;;;17.70;99.90;17.00;99989;;;;542036;261;24245;-78
2022/06/07 02:07:21;;;;;;;12.77;10.87;;;17.60;99.90;17.00;99991;;;;541624;261;24201;-81
2022/06/07 02:09:49;;;;;;;13.00;11.63;;;17.60;99.90;17.00;99984;;;;541809;261;24194;-81
2022/06/07 02:12:17;;;;;;;12.40;11.17;;;17.60;99.90;17.00;99972;;;;551772;256;24149;-78
2022/06/07 02:14:45;;;;;;;12.20;11.10;;;17.60;99.90;17.00;99974;;;;544310;259;24181;-75
2022/06/07 02:17:13;;;;;;;12.57;11.47;;;17.60;99.90;17.00;99981;;;;562837;252;24113;-75
2022/06/07 02:19:41;;;;;;;12.77;11.57;;;17.60;99.90;16.90;99980;;;;561969;252;24122;-76
2022/06/07 02:22:08;;;;;;;12.40;11.27;;;17.50;99.90;16.90;99980;;;;561988;252;24212;-75
2022/06/07 02:24:36;;;;;;;12.70;11.40;;;17.50;99.90;16.90;99984;;;;562105;252;24118;-75
2022/06/07 02:27:04;;;;;;;13.77;12.37;;;17.50;99.90;16.90;99984;;;;561752;252;24104;-82
2022/06/07 02:29:38;;;;;;;14.07;12.13;;;17.50;99.90;16.90;99989;;;;561873;252;24122;-78
2022/06/07 02:32:06;;;;;;;12.80;11.50;;;17.50;99.90;16.90;99986;;;;561796;252;24201;-76
2022/06/07 02:34:37;;;;;;;12.87;11.57;;;17.50;99.90;16.90;99988;;;;561874;252;24175;-75
2022/06/07 02:37:01;;;;;;;13.17;11.97;;;17.50;99.90;16.90;99994;;;;561825;252;24149;-74
2022/06/07 02:39:29;;;;;;;12.80;11.60;;;17.50;99.90;16.90;99995;;;;561709;252;24156;-74
2022/06/07 02:41:57;;;;;;;12.27;11.13;;;17.50;99.90;16.90;99994;;;;561755;252;23136;-74
2022/06/07 02:44:26;;;;;;;13.20;11.07;;;17.50;99.90;16.90;99991;;;;559053;257;24178;-83
2022/06/07 02:46:55;;;;;;;12.73;11.47;;;17.50;99.90;16.90;99990;;;;551325;257;24151;-83
2022/06/07 02:49:23;;;;;;;14.67;13.23;;;17.50;99.90;16.90;99991;;;;541639;261;24193;-77
2022/06/07 02:51:50;;;;;;;12.57;11.27;;;17.50;99.90;16.80;99991;;;;541747;261;24209;-76
2022/06/07 02:54:18;;;;;;;12.60;11.30;;;17.40;99.90;16.70;99988;;;;551763;256;24165;-75
2022/06/07 02:56:46;;;;;;;13.57;12.33;;;17.40;99.90;16.70;99983;;;;552113;256;24160;-78
2022/06/07 02:59:14;;;;;;;12.60;11.40;;;17.30;99.90;16.60;99990;;;;552430;257;24151;-79
2022/06/07 03:01:42;;;;;;;14.33;12.93;;;17.20;99.90;16.50;99987;;;;552230;256;24139;-73
2022/06/07 03:04:10;;;;;;;13.80;12.40;;;17.10;99.90;16.50;99988;;;;551898;257;24143;-77
2022/06/07 03:06:38;;;;;;;12.47;11.37;;;17.10;99.90;16.50;99991;;;;551854;257;24143;-76
2022/06/07 03:09:06;;;;;;;14.03;12.67;;;17.10;99.90;16.50;99987;;;;551835;257;24160;-73
2022/06/07 03:11:34;;;;;;;13.73;12.43;;;17.10;99.90;16.60;99986;;;;551847;257;24162;-77
2022/06/07 03:14:02;;;;;;;15.67;13.40;;;17.20;99.90;16.60;99986;;;;551595;257;24177;-73
2022/06/07 03:16:31;;;;;;;14.07;12.77;;;17.30;99.90;16.70;99984;;;;551607;257;24147;-73
2022/06/07 03:19:00;;;;;;;15.50;12.00;;;17.40;99.90;16.80;99988;;;;551604;257;24148;-73
2022/06/07 03:21:28;;;;;;;13.17;11.87;;;17.30;99.90;17.00;99988;;;;551698;257;24148;-73
2022/06/07 03:23:56;;;;;;;14.43;12.93;;;17.50;99.90;17.10;99993;;;;551698;257;24119;-74
2022/06/07 03:26:24;;;;;;;18.80;13.23;;;17.70;99.90;17.20;99996;;;;551776;256;24173;-72
2022/06/07 03:28:51;;;;;;;15.27;13.87;;;17.80;99.90;17.30;99989;;;;551807;257;24146;-77
2022/06/07 03:31:19;;;;;;;15.17;13.67;;;17.90;99.90;17.30;99986;;;;551587;257;24195;-78
2022/06/07 03:33:47;;;;;;;15.63;13.30;;;17.90;99.90;17.40;99989;;;;551862;257;24165;-76
2022/06/07 03:36:19;;;;;;;13.83;12.53;;;18.00;99.90;17.50;100000;;;;551436;256;24141;-79
2022/06/07 03:38:46;;;;;;;15.80;14.13;;;18.00;99.90;17.80;99997;;;;551225;257;24212;-83
2022/06/07 03:41:19;;;;;;;17.43;13.93;;;18.30;99.90;18.00;100006;;;;543941;259;24147;-76
2022/06/07 03:43:47;;;;;;;16.50;14.87;;;18.60;99.90;18.10;99999;;;;543287;260;24180;-80
2022/06/07 03:46:16;;;;;;;17.43;13.93;;;18.70;99.90;18.10;100003;;;;551406;256;24237;-84
2022/06/07 03:48:45;;;;;;;15.07;13.60;;;18.70;99.90;18.10;100005;;;;551310;257;24176;-76
2022/06/07 03:51:13;;;;;;;18.80;15.33;;;18.70;99.90;18.00;100003;;;;541716;261;24171;-76
2022/06/07 03:53:41;;;;;;;15.97;14.30;;;18.70;99.90;18.10;100005;;;;550652;257;24223;-74
2022/06/07 03:56:10;;;;;;;16.07;14.40;;;18.70;99.90;18.10;99997;;;;541540;261;24186;-81
2022/06/07 03:58:39;;;;;;;16.80;14.87;;;18.80;99.90;18.20;99992;;;;541536;261;24163;-84
2022/06/07 04:01:07;;;;;;;17.30;15.50;;;18.80;99.90;18.20;100004;;;;541491;261;24210;-83
2022/06/07 04:03:36;;;;;;;16.40;14.80;;;18.80;99.90;18.20;100003;;;;559308;257;24144;-84
2022/06/07 04:06:05;;;;;;;17.77;14.20;;;18.90;99.90;18.30;99999;;;;542124;261;24188;-83
2022/06/07 04:08:33;;;;;;;17.37;15.47;;;19.00;99.90;18.50;99997;;;;550794;261;24161;-79
2022/06/07 04:11:05;;;;;;;16.03;14.30;;;19.20;99.90;18.60;100003;;;;551969;257;24127;-84
2022/06/07 04:13:34;;;;;;;16.97;14.93;;;19.30;99.90;18.70;100001;;;;542226;261;24257;-81
2022/06/07 04:15:59;;;;;;;16.90;15.13;;;19.40;99.90;18.80;100003;;;;542168;260;24196;-73
2022/06/07 04:18:28;;;;;;;18.17;16.27;;;19.50;99.90;19.00;100002;;;;541785;261;24217;-73
2022/06/07 04:21:00;;;;;;;18.23;16.27;;;19.70;99.90;19.10;100002;;;;551686;257;24163;-73
2022/06/07 04:23:28;;;;;;;18.47;16.47;;;19.60;99.90;19.20;99997;;;;551560;257;24185;-82
2022/06/07 04:25:56;;;;;;;17.80;16.07;;;20.00;99.90;19.50;99993;;;;542072;261;24241;-83
2022/06/07 04:28:25;;;;;;;16.83;15.23;;;20.70;99.90;20.20;99982;;;;542060;261;23194;-81
2022/06/07 04:30:54;;;;;;;17.10;15.07;;;21.20;99.90;20.70;99988;;;;551435;257;23151;-81
2022/06/07 04:33:22;;;;;;;17.27;15.43;;;21.20;99.90;21.00;99984;;;;551455;257;23167;-81
2022/06/07 04:35:49;;;;;;;17.00;15.43;;;21.50;99.90;21.20;99985;;;;551654;257;24208;-83
2022/06/07 04:38:17;;;;;;;15.97;14.47;;;21.80;99.90;21.30;99990;;;;551734;257;24188;-84
2022/06/07 04:40:45;;;;;;;16.87;15.27;;;21.90;99.90;21.40;99989;;;;551886;257;24225;-78
2022/06/07 04:43:13;;;;;;;16.93;15.43;;;22.00;99.90;21.50;99997;;;;551743;257;24212;-75
2022/06/07 04:45:44;;;;;;;18.87;15.87;;;22.10;99.90;21.50;99998;;;;551754;257;24153;-74
2022/06/07 04:48:09;;;;;;;18.80;16.37;;;22.10;99.90;21.60;99993;;;;553792;256;24157;-85
2022/06/07 04:50:37;;;;;;;18.57;16.80;;;22.20;99.90;21.60;99992;;;;551086;257;24152;-85
2022/06/07 04:53:05;;;;;;;17.70;16.10;;;22.20;99.90;21.70;99996;;;;551008;257;24135;-76
2022/06/07 04:55:33;;;;;;;17.77;15.90;;;22.30;99.90;21.90;100005;;;;550983;257;24158;-75
2022/06/07 04:58:01;;;;;;;18.90;16.37;;;23.20;99.90;22.80;100000;;;;550924;257;24131;-77
2022/06/07 05:00:30;;;;;;;20.27;18.58;;;24.80;99.90;24.50;99995;;;;546221;257;35679;-76
2022/06/07 05:02:58;;;;;;;21.47;16.93;;;24.70;99.90;25.00;100002;;;;551290;257;24192;-76
2022/06/07 05:05:30;;;;;;;18.30;16.70;;;25.50;99.90;25.20;99998;;;;551295;256;24284;-78
2022/06/07 05:07:54;;;;;;;18.43;16.63;;;25.90;99.90;25.20;99997;;;;551052;257;23170;-74
2022/06/07 05:10:22;;;;;;;18.80;16.90;;;25.90;99.90;25.20;99999;;;;551320;257;23249;-82
2022/06/07 05:12:50;;;;;;;18.13;16.00;;;25.90;99.90;25.20;99994;;;;551294;257;23163;-74
2022/06/07 05:15:18;;;;;;;17.87;16.10;;;25.90;99.90;25.30;99998;;;;551235;257;23167;-79
2022/06/07 05:17:48;;;;;;;16.17;14.60;;;25.90;99.90;25.50;99994;;;;552073;256;23151;-78
2022/06/07 05:20:16;;;;;;;16.60;15.10;;;26.10;99.90;25.50;99996;;;;552295;256;24202;-78
2022/06/07 05:22:44;;;;;;;15.80;14.40;;;26.10;99.90;25.50;99992;;;;551825;257;24112;-78
2022/06/07 05:25:12;;;;;;;17.83;15.93;;;26.10;99.90;25.90;100000;;;;551951;256;23165;-77
2022/06/07 05:27:40;;;;;;;16.33;14.77;;;26.30;99.90;26.90;100009;;;;551693;257;23177;-75
2022/06/07 05:30:08;;;;;;;15.90;14.13;;;28.70;99.90;28.40;100003;;;;550783;257;23230;-74
2022/06/07 05:32:37;;;;;;;15.13;13.83;;;29.40;99.90;28.90;100001;;;;551591;257;24159;-73
2022/06/07 05:35:06;;;;;;;13.73;12.53;;;30.00;98.80;29.50;100010;;;;551607;257;23145;-75
2022/06/07 05:37:38;;;;;;;14.68;13.48;;;31.00;96.30;30.60;100018;;;;551423;256;23153;-77
2022/06/07 05:40:06;;;;;;;14.93;13.55;;;30.90;96.20;31.50;100013;;;;551411;257;23157;-81
2022/06/07 05:42:34;;;;;;;13.88;12.82;;;32.10;92.60;31.60;100017;;;;551400;257;24179;-75
2022/06/07 05:45:02;;;;;;;13.73;12.57;;;32.50;85.10;32.00;100015;;;;551326;256;24166;-74
2022/06/07 05:47:31;;;;;;;13.77;12.68;;;33.80;80.70;33.40;100021;;;;551450;257;23173;-80
2022/06/07 05:50:01;;;;;;;14.75;11.73;;;35.00;74.20;34.70;100021;;;;551285;256;23168;-74
2022/06/07 05:52:28;;;;;;;12.90;11.70;;;36.40;69.00;36.00;100028;;;;551147;257;24219;-76
2022/06/07 05:54:57;;;;;;;15.27;12.25;;;36.30;68.80;37.60;100024;;;;551266;257;24203;-74
2022/06/07 05:57:24;;;;;;;12.80;11.70;;;37.90;64.00;38.80;100030;;;;551208;257;23168;-74
2022/06/07 05:59:52;;;;;;;12.07;11.18;;;39.20;58.90;39.60;100032;;;;551230;257;24258;-76
2022/06/07 06:02:20;;;;;;;12.35;11.15;;;40.10;55.60;40.50;100037;;;;550957;257;23185;-75
2022/06/07 06:04:48;;;;;;;12.50;11.60;;;40.90;53.20;41.00;100036;;;;550945;257;23165;-75
2022/06/07 06:07:16;;;;;;;11.60;10.63;;;41.60;51.00;41.60;100042;;;;550855;257;23158;-81
2022/06/07 06:12:31;;;;;;;11.77;10.88;;;42.70;48.70;43.00;100045;;;;546140;257;35686;-75
2022/06/07 06:14:58;;;;;;;10.30;9.60;;;43.50;46.60;43.20;100044;;;;550754;257;23180;-79
2022/06/07 06:17:26;;;;;;;10.13;9.32;;;43.80;45.90;43.70;100044;;;;551246;257;23142;-79
2022/06/07 06:19:54;;;;;;;10.35;9.48;;;44.30;45.50;44.30;100051;;;;550834;257;23184;-78
2022/06/07 06:22:21;;;;;;;9.82;9.23;;;44.80;44.50;44.80;100050;;;;550926;256;23158;-77
2022/06/07 06:24:49;;;;;;;9.10;8.48;;;45.40;43.70;45.20;100045;;;;550767;257;23153;-76
2022/06/07 06:27:18;;;;;;;8.48;7.97;;;46.30;42.20;45.80;100044;;;;550907;257;23166;-77
2022/06/07 06:29:47;;;;;;;8.10;7.25;;;46.60;41.20;46.20;100047;;;;551820;256;23144;-76
2022/06/07 06:32:15;;;;;;;7.82;7.22;;;46.90;40.70;46.50;100051;;;;552195;256;23167;-76
2022/06/07 06:34:43;;;;;;;7.55;6.87;;;46.80;40.00;46.80;100052;;;;551668;256;23317;-77
2022/06/07 06:37:11;;;;;;;7.70;7.10;;;47.30;39.90;46.90;100058;;;;551593;257;23149;-81
2022/06/07 06:39:39;;;;;;;8.20;7.70;;;47.50;39.50;46.00;100065;;;;551457;256;23155;-81
2022/06/07 06:42:07;;;;;;;7.90;7.35;;;46.90;39.00;44.60;100058;;;;551351;257;23156;-80
2022/06/07 06:44:35;;;;;;;7.18;6.57;;;45.70;39.80;44.20;100062;;;;551561;257;23144;-82
2022/06/07 06:47:07;;;;;;;7.65;7.12;;;45.00;40.10;44.60;100062;;;;551311;257;23166;-81
2022/06/07 06:49:32;;;;;;;7.05;6.55;;;45.00;40.60;45.50;100068;;;;550768;257;23203;-79
2022/06/07 06:51:59;;;;;;;12.20;7.50;;;46.30;40.00;46.30;100069;;;;551409;257;23166;-79
2022/06/07 06:54:30;;;;;;;7.07;6.40;;;46.30;40.00;47.20;100063;;;;551425;257;24165;-78
2022/06/07 06:56:59;;;;;;;6.57;5.93;;;47.10;38.80;47.20;100073;;;;551141;257;23164;-80
2022/06/07 06:59:23;;;;;;;7.25;6.75;;;47.40;38.00;46.70;100064;;;;546398;257;23160;-80
2022/06/07 07:01:51;;;;;;;6.93;6.43;;;47.20;38.30;46.50;100068;;;;548005;256;23220;-80
2022/06/07 07:04:19;;;;;;;6.60;6.25;;;47.00;38.40;46.40;100062;;;;551012;257;23179;-83
2022/06/07 07:06:47;;;;;;;7.15;6.53;;;46.90;38.50;46.70;100064;;;;558860;257;23196;-83
2022/06/07 07:09:18;;;;;;;7.12;6.43;;;47.00;38.20;47.20;100076;;;;550727;257;24180;-82
2022/06/07 07:11:43;;;;;;;8.57;6.95;;;47.40;38.30;47.90;100065;;;;558589;257;23175;-81
2022/06/07 07:14:11;;;;;;;8.23;5.50;;;48.70;37.50;48.60;100065;;;;558855;252;23190;-79
2022/06/07 07:16:41;;;;;;;6.07;5.53;;;49.30;36.50;49.30;100068;;;;552910;257;23142;-81
2022/06/07 07:19:12;;;;;;;6.18;5.87;;;49.30;36.50;49.60;100074;;;;558759;257;23196;-82
2022/06/07 07:21:36;;;;;;;6.95;6.50;;;49.80;36.00;49.90;100067;;;;552815;257;23236;-83
2022/06/07 07:24:04;;;;;;;6.50;5.90;;;50.20;35.50;50.10;100068;;;;558862;257;23165;-83
2022/06/07 07:26:36;;;;;;;9.18;6.40;;;50.40;35.20;50.50;100065;;;;558071;257;23177;-83
2022/06/07 07:29:00;;;;;;;6.68;5.62;;;50.80;35.10;50.20;100075;;;;541918;260;23178;-83
2022/06/07 07:31:30;;;;;;;7.30;6.12;;;50.80;34.60;48.70;100067;;;;533199;266;23222;-81
2022/06/07 07:33:56;;;;;;;6.45;5.90;;;49.60;34.80;48.40;100073;;;;542087;261;23207;-82
2022/06/07 07:36:24;;;;;;;9.95;5.50;;;49.10;35.90;49.00;100079;;;;533170;266;23168;-81
2022/06/07 07:38:52;;;;;;;6.12;5.30;;;49.10;35.90;48.00;100085;;;;550133;260;23194;-81
2022/06/07 07:41:23;;;;;;;6.47;6.00;;;48.70;35.40;47.70;100081;;;;534195;265;23181;-81
2022/06/07 07:43:55;;;;;;;6.68;5.62;;;48.40;36.50;48.30;100073;;;;543156;261;25374;-80
2022/06/07 07:46:23;;;;;;;11.70;6.37;;;49.20;35.80;49.30;100073;;;;542690;261;23160;-82
2022/06/07 07:48:49;;;;;;;5.80;5.43;;;50.00;35.00;50.30;100074;;;;542767;260;23147;-83
2022/06/07 07:51:23;;;;;;;6.00;5.60;;;51.10;34.30;51.10;100075;;;;528665;265;46840;-81
2022/06/07 07:53:51;;;;;;;6.20;5.43;;;51.00;34.20;51.20;100082;;;;540813;265;23305;-83
2022/06/07 07:56:19;;;;;;;5.78;5.37;;;51.50;33.70;50.20;100082;;;;542647;261;23181;-83
2022/06/07 07:58:50;;;;;;;6.07;5.65;;;50.90;34.10;50.30;100084;;;;540228;266;23214;-83
2022/06/07 08:01:15;;;;;;;7.30;5.57;;;50.70;34.00;48.90;100086;;;;533064;259;23198;-81
2022/06/07 08:03:43;;;;;;;5.80;5.32;;;49.80;34.10;48.50;100093;;;;542033;261;23194;-81
2022/06/07 08:06:12;;;;;;;5.57;4.97;;;49.10;34.70;48.60;100094;;;;542308;261;23148;-80
2022/06/07 08:08:39;;;;;;;5.37;5.03;;;49.00;35.00;47.40;100095;;;;542331;261;23164;-80
2022/06/07 08:11:07;;;;;;;5.70;4.80;;;47.10;36.10;46.10;100097;;;;533180;265;23171;-81
2022/06/07 08:13:36;;;;;;;7.40;6.03;;;47.00;35.40;45.20;100101;;;;542049;259;23319;-79
2022/06/07 08:16:07;;;;;;;10.52;6.05;;;46.10;36.40;43.90;100097;;;;542249;261;23193;-78
2022/06/07 08:18:31;;;;;;;6.97;6.40;;;45.00;37.50;43.10;100098;;;;532719;264;23182;-79
2022/06/07 08:20:59;;;;;;;6.35;5.85;;;43.90;38.60;44.20;100099;;;;540068;266;23181;-79
2022/06/07 08:23:28;;;;;;;5.90;5.60;;;44.30;38.80;45.30;100099;;;;542143;261;23242;-79
2022/06/07 08:25:59;;;;;;;5.18;4.85;;;45.10;38.30;46.40;100092;;;;533340;266;23168;-79
2022/06/07 08:28:23;;;;;;;6.43;5.85;;;46.20;37.80;47.20;100101;;;;542046;261;23206;-83
2022/06/07 08:30:55;;;;;;;6.12;5.72;;;47.20;36.00;47.00;100096;;;;542583;261;23225;-81
2022/06/07 08:38:42;;;;;;;5.70;5.30;;;47.70;35.50;44.80;100095;;;;526383;261;46490;-82
2022/06/07 08:41:10;;;;;;;5.60;5.30;;;46.40;35.80;44.10;100093;;;;533007;266;23163;-81
2022/06/07 08:43:36;;;;;;;5.78;5.37;;;45.50;37.50;45.30;100087;;;;549859;261;23189;-81
2022/06/07 08:46:04;;;;;;;6.10;5.40;;;45.50;37.40;46.50;100091;;;;533144;266;23167;-82
2022/06/07 08:48:35;;;;;;;6.05;5.50;;;46.50;36.70;47.60;100094;;;;542193;259;23161;-82
2022/06/07 08:51:18;;;;;;;5.70;5.05;;;47.60;36.30;48.80;100099;;;;541319;261;23173;-79
2022/06/07 08:53:48;;;;;;;5.68;5.20;;;49.60;34.10;49.30;100101;;;;533973;265;24266;-82
2022/06/07 08:56:14;;;;;;;5.72;5.22;;;49.60;34.00;49.80;100106;;;;535695;266;23185;-78
2022/06/07 08:58:42;;;;;;;5.30;4.93;;;50.10;33.90;50.40;100099;;;;542944;260;23165;-84
2022/06/07 09:01:31;;;;;;;4.93;4.57;;;50.80;33.60;51.30;100090;;;;533468;265;23213;-82
2022/06/07 09:04:17;;;;;;;5.40;4.70;;;51.70;33.20;52.00;100090;;;;532579;266;23209;-82
2022/06/07 09:06:45;;;;;;;10.65;4.60;;;52.50;32.50;50.40;100106;;;;542916;261;23259;-80
2022/06/07 09:09:13;;;;;;;5.47;5.07;;;51.70;32.40;50.80;100096;;;;533321;264;23221;-83
2022/06/07 09:14:32;;;;;;;5.00;4.80;;;52.40;32.50;52.00;100097;;;;542658;261;23298;-84
2022/06/07 09:17:00;;;;;;;4.15;3.95;;;52.90;31.40;52.10;100094;;;;533476;263;23185;-84
2022/06/07 09:19:27;;;;;;;6.30;4.05;;;53.00;31.30;52.10;100095;;;;542563;261;23179;-83
2022/06/07 09:21:55;;;;;;;6.40;3.90;;;52.90;30.90;52.50;100091;;;;533042;265;24306;-82
2022/06/07 09:24:32;;;;;;;4.40;4.10;;;53.20;30.70;52.90;100091;;;;534854;266;23234;-83
2022/06/07 09:27:07;;;;;;;3.80;3.60;;;53.50;30.90;53.20;100093;;;;541952;261;23160;-83
2022/06/07 09:29:37;;;;;;;4.80;4.50;;;54.60;30.20;53.90;100087;;;;532596;266;23228;-83
2022/06/07 09:32:04;;;;;;;5.12;4.78;;;54.70;30.20;54.20;100085;;;;534791;266;23222;-83
2022/06/07 09:34:30;;;;;;;5.12;4.82;;;55.20;30.20;54.50;100091;;;;532764;266;23205;-82
2022/06/07 09:37:07;;;;;;;4.60;4.40;;;55.50;30.10;53.70;100086;;;;532820;266;23186;-83
2022/06/07 09:39:38;;;;;;;4.70;4.32;;;55.30;29.80;53.20;100081;;;;541728;261;23178;-83
2022/06/07 09:42:24;;;;;;;4.87;3.67;;;54.60;30.30;53.80;100093;;;;532571;266;23238;-83
2022/06/07 09:45:05;;;;;;;4.25;4.03;;;55.00;29.60;54.10;100087;;;;550095;260;23209;-82
2022/06/07 09:47:30;;;;;;;4.90;4.45;;;55.00;29.60;54.80;100083;;;;531320;266;23231;-83
2022/06/07 09:50:16;;;;;;;14.02;5.05;;;55.50;29.70;54.40;100087;;;;539822;266;23286;-84
2022/06/07 09:52:45;;;;;;;11.45;4.40;;;55.70;29.10;51.70;100098;;;;541932;261;23217;-84
2022/06/07 09:55:30;;;;;;;9.88;4.22;;;53.60;29.40;50.70;100101;;;;549341;260;23181;-83
2022/06/07 09:58:07;;;;;;;8.75;5.03;;;52.30;30.30;48.30;100101;;;;532488;266;24247;-79
2022/06/07 10:01:12;;;;;;;5.72;4.75;;;47.30;33.40;45.30;100094;;;;530015;266;36642;-80
2022/06/07 10:03:49;;;;;;;5.28;4.78;;;47.20;33.40;42.40;100095;;;;530766;260;35591;-79
2022/06/07 10:06:21;;;;;;;6.65;4.62;;;42.20;36.90;41.00;100090;;;;533101;263;23204;-80
2022/06/07 10:09:24;;;;;;;4.50;4.10;;;42.10;36.90;41.60;100091;;;;541129;265;24254;-79
2022/06/07 10:12:04;;;;;;;5.15;4.50;;;42.10;38.70;43.60;100088;;;;550202;261;23177;-83
2022/06/07 10:14:38;;;;;;;10.80;4.95;;;43.70;37.80;43.50;100086;;;;533288;265;23166;-82
2022/06/07 10:17:36;;;;;;;5.07;4.25;;;44.10;36.70;42.50;100091;;;;542278;261;23149;-79
2022/06/07 10:20:13;;;;;;;13.50;5.87;;;43.40;37.00;42.20;100085;;;;532875;265;23221;-77
2022/06/07 10:22:45;;;;;;;15.93;5.50;;;42.20;37.80;41.20;100092;;;;542226;261;23261;-77
2022/06/07 10:25:25;;;;;;;7.05;4.93;;;42.10;37.70;40.30;100088;;;;532549;265;23241;-80
2022/06/07 10:27:58;;;;;;;5.28;3.95;;;41.20;38.40;39.30;100090;;;;532816;265;23224;-78
2022/06/07 10:30:41;;;;;;;8.40;4.15;;;40.10;39.10;38.20;100089;;;;532311;265;23216;-79
2022/06/07 10:33:39;;;;;;;4.43;4.00;;;38.90;39.80;38.10;100081;;;;532878;265;23189;-80
2022/06/07 10:36:41;;;;;;;6.82;6.20;;;38.60;40.70;38.60;100081;;;;532693;265;23201;-82
2022/06/07 10:39:12;;;;;;;50.20;13.88;;;38.60;43.60;38.20;100088;;;;532487;266;23237;-82
2022/06/07 10:41:55;;;;;;;12.75;11.20;;;38.70;44.30;37.40;100090;;;;532449;266;23242;-81
2022/06/07 10:44:31;;;;;;;15.93;13.93;;;37.90;45.30;36.70;100089;;;;532083;266;23219;-82
2022/06/07 10:46:59;;;;;;;15.05;13.05;;;37.20;46.10;35.80;100088;;;;548433;261;23210;-83
2022/06/07 10:49:36;;;;;;;15.52;13.90;;;36.40;47.00;34.90;100085;;;;532749;266;23237;-80
2022/06/07 10:52:22;;;;;;;13.85;12.40;;;35.50;48.20;34.00;100094;;;;532082;266;23183;-80
2022/06/07 10:55:19;;;;;;;16.40;13.40;;;34.60;49.70;33.30;100090;;;;541891;261;23186;-76
2022/06/07 10:58:04;;;;;;;16.27;11.63;;;33.80;51.70;32.80;100088;;;;541984;261;23159;-76
2022/06/07 11:00:39;;;;;;;13.38;10.32;;;33.10;52.90;32.10;100095;;;;539944;265;23186;-77
2022/06/07 11:03:38;;;;;;;12.75;10.63;;;32.00;54.80;31.50;100101;;;;546165;258;24138;-79
2022/06/07 11:09:21;;;;;;;10.93;9.88;;;31.40;55.40;30.60;100082;;;;533228;266;23224;-80
2022/06/07 11:11:49;;;;;;;10.45;9.65;;;31.00;56.10;30.10;100079;;;;539708;261;23170;-79
2022/06/07 11:14:39;;;;;;;15.63;9.98;;;30.60;56.90;29.50;100078;;;;542292;261;24163;-82
2022/06/07 11:17:22;;;;;;;15.82;9.98;;;29.40;58.80;28.80;100079;;;;534393;265;24247;-77
2022/06/07 11:19:54;;;;;;;10.97;10.07;;;29.40;58.70;28.30;100075;;;;534008;265;23209;-78
2022/06/07 11:22:18;;;;;;;11.60;10.47;;;28.90;60.50;27.90;100076;;;;533347;265;24245;-76
2022/06/07 11:24:59;;;;;;;11.27;10.23;;;28.50;61.80;27.60;100084;;;;542775;261;23185;-78
2022/06/07 11:27:27;;;;;;;10.70;9.80;;;28.20;63.00;27.40;100099;;;;532407;265;24213;-80
2022/06/07 11:30:34;;;;;;;10.53;9.63;;;27.60;64.00;27.20;100097;;;;542666;261;23182;-78
2022/06/07 11:33:02;;;;;;;12.27;11.07;;;27.60;63.90;26.80;100092;;;;533707;266;23182;-77
2022/06/07 11:35:46;;;;;;;11.30;10.27;;;27.30;64.40;26.60;100083;;;;542484;261;23178;-79
2022/06/07 11:38:19;;;;;;;9.43;8.73;;;27.10;65.10;26.30;100079;;;;540815;265;23187;-79